ENNM/OSY METAR and TAF weather

Enter ICAO airport designator
Station Type Date Time Source
ENNM METAR 2019/06/15 08:50 UTC NOAA

ENNM 150850Z 22003KT 160V240 9999 FEW035 18/12 Q1018


Station Type Date Time Source
ENNM Decoded METAR 2019/06/15 08:50 UTC NOAA

Namsos Lufthavn, Norway (ENNM) 64-28N 011-35E 2M
Jun 15, 2019 - 04:50 AM EDT / 2019.06.15 0850 UTC
Wind: from the SW (220 degrees) at 3 MPH (3 KT) (direction variable):0
Visibility: greater than 7 mile(s):0
Sky conditions: mostly clear
Temperature: 64 F (18 C)
Dew Point: 53 F (12 C)
Relative Humidity: 67%
Pressure (altimeter): 30.06 in. Hg (1018 hPa)
ob: ENNM 150850Z 22003KT 160V240 9999 FEW035 18/12 Q1018
cycle: 9

Station Type Date Time Source
ENNM TAF UTC NOAA

Error!

Example: see airport list